首页
METAR-TAF:

METAR-TAF

机场 :

巴馬科國際機場

巴馬科, 马里共和国

纬度: 12-32N, 经度: 007-57W, 海拔: 380米

当前天气观测

该预报发布于24分钟前的21:30 UTC
风速3节,风向西转西南
温度 27°C
湿度 94%
气压 1012 hPa
能见度10公里或以上
1500米以下无云,无积雨云

METAR: GABS 252130Z 24003KT CAVOK 27/26 Q1012 NOSIG

时间: 21:54 (21:54 UTC)

预报

该预报发布于4小时和14分钟前的17:40 UTC
预报有效从25日的 18点(UTC)到 26日的 24点(UTC)
风速6节,风向西
能见度10公里或以上
少量云层高于2500英尺
几率 40% :
短暂存在
从 26日的 02点(UTC)到 26日的 06点(UTC)
风速20节,风向多变,有时为35节阵风
能見度: 4000
散云层高于2500英尺
少量云层高于3300英尺, 积雨云.
雷暴, 雨
几率 40% :
短暂存在
从 26日的 16点(UTC)到 26日的 20点(UTC)
风速20节,风向东转东北,有时为35节阵风
能見度: 4000
多云层高于2500英尺
少量云层高于3300英尺, 积雨云.
雷暴, 雨,

TAF: GABS 251740Z 2518/2624 26006KT 9999 FEW025 PROB40 TEMPO 2602/2606 VRB20G35KT 4000 TSRA SCT025 FEW033CB PROB40 TEMPO 2616/2620 06020G35KT 4000 TSRA BKN025 FEW033CB

超过4000个机场的气象观测和天气预报(METAR&TAF报告)。

可查询的气象台以黄色和红色小点在地图上表示。

将鼠标移到小点上方,可查看气象台名称。

然后点击查看天气观测和预报。

如需切换地图:点击带黑十字的绿色按钮放大地图;点击带横线的绿色按钮缩小地图;或者点击绿色箭头查看邻近地区的地图。


METAR-TAF: